MOL Partner — 3EBZ5 — position and weather

sailwx.info

Track history (hours):
 
Tides and Currents Weather Stations Pressure Air Temp Water Temp Dewpoint Dewpoint Depression Visibility Wind Speed Wind Dir Waves Ship Positions

MOL Partner

Last reported at 2017-Sep-21 17:59 UTC. Time now 2017-Sep-26 03:50 UTC.
Position N 22°34' E 114°17'.

Length 293 m; draft 12.5 m.

Type: Cargo ship. MMSI: 371303000.

Date/timePositionNaut miles runAvg speedWind from/ knotsBaromVisibWave heightAir tempDewpointWater temp
2017-Sep-21 17:59N 22°34' E 114°17'1 2.5
2017-Sep-21 17:30N 22°34' E 114°16'0 0.0
2017-Sep-21 16:58N 22°34' E 114°16'0 0.0
2017-Sep-21 16:22N 22°34' E 114°16'0 0.0
2017-Sep-21 15:58N 22°34' E 114°16'0 0.0
2017-Sep-21 15:28N 22°34' E 114°16'0 0.0
2017-Sep-21 14:58N 22°34' E 114°16'0 0.0
2017-Sep-21 14:28N 22°34' E 114°16'0 0.0
2017-Sep-21 13:58N 22°34' E 114°16'0 0.0
2017-Sep-21 13:28N 22°34' E 114°16'0 0.0
2017-Sep-21 12:46N 22°34' E 114°16'0 0.0
2017-Sep-21 12:28N 22°34' E 114°16'0 0.0
2017-Sep-21 11:58N 22°34' E 114°16'0 0.0
2017-Sep-21 11:28N 22°34' E 114°16'0 0.0
2017-Sep-21 10:46N 22°34' E 114°16'0 0.0
2017-Sep-21 10:28N 22°34' E 114°16'0 0.0
2017-Sep-21 09:58N 22°34' E 114°16'0 0.0
2017-Sep-21 09:28N 22°34' E 114°16'0 0.0
2017-Sep-21 08:58N 22°34' E 114°16'0 0.0
2017-Sep-21 08:22N 22°34' E 114°16'0 0.0
2017-Sep-21 07:58N 22°34' E 114°16'0 0.0
2017-Sep-21 07:28N 22°34' E 114°16'0 0.0
2017-Sep-21 06:22N 22°34' E 114°16'0 0.0
2017-Sep-21 05:52N 22°34' E 114°16'0 0.0
2017-Sep-21 05:22N 22°34' E 114°16'0 0.0
2017-Sep-21 04:52N 22°34' E 114°16'0 0.0
2017-Sep-21 04:28N 22°34' E 114°16'0 0.0
2017-Sep-21 03:58N 22°34' E 114°16'0 0.0
2017-Sep-21 03:28N 22°34' E 114°16'0 0.0
2017-Sep-21 02:58N 22°34' E 114°16'0 0.0
2017-Sep-21 02:28N 22°34' E 114°16'0 0.0
2017-Sep-21 01:58N 22°34' E 114°16'0 0.0
2017-Sep-21 01:28N 22°34' E 114°16'0 0.0
2017-Sep-21 00:58N 22°34' E 114°16'0 0.0
2017-Sep-21 00:28N 22°34' E 114°16'0 0.0
2017-Sep-20 23:58N 22°34' E 114°16'0 0.0
2017-Sep-20 23:28N 22°34' E 114°16'0 0.0
2017-Sep-20 22:58N 22°34' E 114°16'0 0.0
2017-Sep-20 22:28N 22°34' E 114°16'0 0.0
2017-Sep-20 21:58N 22°34' E 114°16'0 0.1
2017-Sep-20 21:30N 22°34' E 114°16'14615.6
2017-Sep-20 12:07N 22°17' E 116°53'3220.1
2017-Sep-20 10:30N 22°17' E 117°28'2719.1
2017-Sep-20 09:04N 22°19' E 117°57'119.2
2017-Sep-20 09:00N 22°19' E 117°59'1019.0
2017-Sep-20 08:28N 22°20' E 118°10'919.1
2017-Sep-20 07:59N 22°20' E 118°20'918.8
2017-Sep-20 07:30N 22°21' E 118°30'1019.6
2017-Sep-20 06:59N 22°21' E 118°41'918.4
2017-Sep-20 06:30N 22°22' E 118°50'1018.9
2017-Sep-20 06:00N 22°22' E 119°00'918.6
2017-Sep-20 05:30N 22°22' E 119°10'1418.8
2017-Sep-20 04:44N 22°24' E 119°26'617.6
2017-Sep-20 04:24N 22°26' E 119°32'718.4
2017-Sep-20 04:00N 22°27' E 119°40'1018.3
2017-Sep-20 03:28N 22°30' E 119°50'918.7
2017-Sep-20 03:01N 22°31' E 119°59'918.7
2017-Sep-20 02:30N 22°32' E 120°09'815.1
2017-Sep-20 02:00N 22°33' E 120°17'2 4.1
2017-Sep-20 01:26N 22°33' E 120°20'0 0.1
2017-Sep-19 20:58N 22°33' E 120°20'0 0.0
2017-Sep-19 20:07N 22°33' E 120°20'0 0.0
2017-Sep-19 19:52N 22°33' E 120°20'0 0.0
2017-Sep-19 17:55N 22°33' E 120°20'0 0.0
2017-Sep-19 17:07N 22°33' E 120°20'0 0.0
2017-Sep-19 16:49N 22°33' E 120°20'0 0.0
2017-Sep-19 15:20N 22°33' E 120°20'1 2.3
2017-Sep-19 15:00N 22°33' E 120°19'3 6.7
2017-Sep-19 14:30N 22°33' E 120°16'0 0.6
2017-Sep-19 14:00N 22°32' E 120°16'612.5
2017-Sep-19 13:30N 22°31' E 120°09'816.4
2017-Sep-19 13:00N 22°27' E 120°01'918.4
2017-Sep-19 12:30N 22°21' E 119°54'  
2017-Sep-12 17:10N 01°15' E 104°04'418.1
2017-Sep-12 16:57N 01°14' E 104°00'714.5
2017-Sep-12 16:30N 01°13' E 103°54'4 8.4
2017-Sep-12 15:59N 01°16' E 103°51'0 0.3
2017-Sep-12 15:25N 01°16' E 103°51'0 0.0
2017-Sep-12 14:55N 01°16' E 103°51'0 0.0
2017-Sep-12 14:25N 01°16' E 103°51'0 0.0
2017-Sep-12 13:58N 01°16' E 103°51'0 0.0
2017-Sep-12 13:28N 01°16' E 103°51'0 0.0
2017-Sep-12 12:55N 01°16' E 103°51'0 0.0
2017-Sep-12 12:28N 01°16' E 103°51'0 0.0
2017-Sep-12 11:55N 01°16' E 103°51'0 0.0
2017-Sep-12 11:25N 01°16' E 103°51'0 0.0
2017-Sep-12 10:58N 01°16' E 103°51'0 0.0
2017-Sep-12 10:28N 01°16' E 103°51'0 0.0
2017-Sep-12 09:55N 01°16' E 103°51'0 0.0
2017-Sep-12 09:28N 01°16' E 103°51'0 0.0
2017-Sep-12 08:58N 01°16' E 103°51'0 0.0
2017-Sep-12 08:28N 01°16' E 103°51'0 0.0
2017-Sep-12 07:58N 01°16' E 103°51'0 0.0
2017-Sep-12 07:25N 01°16' E 103°51'0 0.0
2017-Sep-12 06:55N 01°16' E 103°51'0 0.0
2017-Sep-12 06:25N 01°16' E 103°51'0 0.0
2017-Sep-12 05:55N 01°16' E 103°51'0 0.0
2017-Sep-12 05:25N 01°16' E 103°51'0 0.0
2017-Sep-12 04:55N 01°16' E 103°51'0 0.0
2017-Sep-12 04:25N 01°16' E 103°51'0 0.0
2017-Sep-12 03:55N 01°16' E 103°51'0 0.0
2017-Sep-12 03:25N 01°16' E 103°51'0 0.0
2017-Sep-12 02:58N 01°16' E 103°51'0 0.0
2017-Sep-12 02:25N 01°16' E 103°51'0 0.0
2017-Sep-12 01:55N 01°16' E 103°51'0 0.0
2017-Sep-12 01:28N 01°16' E 103°51'0 0.0
2017-Sep-12 00:55N 01°16' E 103°51'0 0.0
2017-Sep-12 00:28N 01°16' E 103°51'0 0.3
2017-Sep-12 00:00N 01°16' E 103°51'1 3.0
2017-Sep-11 23:30N 01°15' E 103°52'2 4.7
2017-Sep-11 23:00N 01°13' E 103°53'3 5.2
2017-Sep-11 22:30N 01°14' E 103°56'4 7.7
2017-Sep-11 22:01N 01°15' E 103°59'610.0
2017-Sep-11 21:25N 01°16' E 104°05'  
Track history (hours):
 
Tides and Currents Weather Stations Pressure Air Temp Water Temp Dewpoint Dewpoint Depression Visibility Wind Speed Wind Dir Waves Ship Positions

MOL Partner

Last reported at 2017-Sep-21 17:59 UTC. Time now 2017-Sep-26 03:50 UTC.
Position N 22°34' E 114°17'.

Length 293 m; draft 12.5 m.

Type: Cargo ship. MMSI: 371303000.

Date/timePositionNaut miles runAvg speedWind from/ knotsBaromVisibWave heightAir tempDewpointWater temp
2017-Sep-21 17:59N 22°34' E 114°17'1 2.5
2017-Sep-21 17:30N 22°34' E 114°16'0 0.0
2017-Sep-21 16:58N 22°34' E 114°16'0 0.0
2017-Sep-21 16:22N 22°34' E 114°16'0 0.0
2017-Sep-21 15:58N 22°34' E 114°16'0 0.0
2017-Sep-21 15:28N 22°34' E 114°16'0 0.0
2017-Sep-21 14:58N 22°34' E 114°16'0 0.0
2017-Sep-21 14:28N 22°34' E 114°16'0 0.0
2017-Sep-21 13:58N 22°34' E 114°16'0 0.0
2017-Sep-21 13:28N 22°34' E 114°16'0 0.0
2017-Sep-21 12:46N 22°34' E 114°16'0 0.0
2017-Sep-21 12:28N 22°34' E 114°16'0 0.0
2017-Sep-21 11:58N 22°34' E 114°16'0 0.0
2017-Sep-21 11:28N 22°34' E 114°16'0 0.0
2017-Sep-21 10:46N 22°34' E 114°16'0 0.0
2017-Sep-21 10:28N 22°34' E 114°16'0 0.0
2017-Sep-21 09:58N 22°34' E 114°16'0 0.0
2017-Sep-21 09:28N 22°34' E 114°16'0 0.0
2017-Sep-21 08:58N 22°34' E 114°16'0 0.0
2017-Sep-21 08:22N 22°34' E 114°16'0 0.0
2017-Sep-21 07:58N 22°34' E 114°16'0 0.0
2017-Sep-21 07:28N 22°34' E 114°16'0 0.0
2017-Sep-21 06:22N 22°34' E 114°16'0 0.0
2017-Sep-21 05:52N 22°34' E 114°16'0 0.0
2017-Sep-21 05:22N 22°34' E 114°16'0 0.0
2017-Sep-21 04:52N 22°34' E 114°16'0 0.0
2017-Sep-21 04:28N 22°34' E 114°16'0 0.0
2017-Sep-21 03:58N 22°34' E 114°16'0 0.0
2017-Sep-21 03:28N 22°34' E 114°16'0 0.0
2017-Sep-21 02:58N 22°34' E 114°16'0 0.0
2017-Sep-21 02:28N 22°34' E 114°16'0 0.0
2017-Sep-21 01:58N 22°34' E 114°16'0 0.0
2017-Sep-21 01:28N 22°34' E 114°16'0 0.0
2017-Sep-21 00:58N 22°34' E 114°16'0 0.0
2017-Sep-21 00:28N 22°34' E 114°16'0 0.0
2017-Sep-20 23:58N 22°34' E 114°16'0 0.0
2017-Sep-20 23:28N 22°34' E 114°16'0 0.0
2017-Sep-20 22:58N 22°34' E 114°16'0 0.0
2017-Sep-20 22:28N 22°34' E 114°16'0 0.0
2017-Sep-20 21:58N 22°34' E 114°16'0 0.1
2017-Sep-20 21:30N 22°34' E 114°16'14615.6
2017-Sep-20 12:07N 22°17' E 116°53'3220.1
2017-Sep-20 10:30N 22°17' E 117°28'2719.1
2017-Sep-20 09:04N 22°19' E 117°57'119.2
2017-Sep-20 09:00N 22°19' E 117°59'1019.0
2017-Sep-20 08:28N 22°20' E 118°10'919.1
2017-Sep-20 07:59N 22°20' E 118°20'918.8
2017-Sep-20 07:30N 22°21' E 118°30'1019.6
2017-Sep-20 06:59N 22°21' E 118°41'918.4
2017-Sep-20 06:30N 22°22' E 118°50'1018.9
2017-Sep-20 06:00N 22°22' E 119°00'918.6
2017-Sep-20 05:30N 22°22' E 119°10'1418.8
2017-Sep-20 04:44N 22°24' E 119°26'617.6
2017-Sep-20 04:24N 22°26' E 119°32'718.4
2017-Sep-20 04:00N 22°27' E 119°40'1018.3
2017-Sep-20 03:28N 22°30' E 119°50'918.7
2017-Sep-20 03:01N 22°31' E 119°59'918.7
2017-Sep-20 02:30N 22°32' E 120°09'815.1
2017-Sep-20 02:00N 22°33' E 120°17'2 4.1
2017-Sep-20 01:26N 22°33' E 120°20'0 0.1
2017-Sep-19 20:58N 22°33' E 120°20'0 0.0
2017-Sep-19 20:07N 22°33' E 120°20'0 0.0
2017-Sep-19 19:52N 22°33' E 120°20'0 0.0
2017-Sep-19 17:55N 22°33' E 120°20'0 0.0
2017-Sep-19 17:07N 22°33' E 120°20'0 0.0
2017-Sep-19 16:49N 22°33' E 120°20'0 0.0
2017-Sep-19 15:20N 22°33' E 120°20'1 2.3
2017-Sep-19 15:00N 22°33' E 120°19'3 6.7
2017-Sep-19 14:30N 22°33' E 120°16'0 0.6
2017-Sep-19 14:00N 22°32' E 120°16'612.5
2017-Sep-19 13:30N 22°31' E 120°09'816.4
2017-Sep-19 13:00N 22°27' E 120°01'918.4
2017-Sep-19 12:30N 22°21' E 119°54'  
2017-Sep-12 17:10N 01°15' E 104°04'418.1
2017-Sep-12 16:57N 01°14' E 104°00'714.5
2017-Sep-12 16:30N 01°13' E 103°54'4 8.4
2017-Sep-12 15:59N 01°16' E 103°51'0 0.3
2017-Sep-12 15:25N 01°16' E 103°51'0 0.0
2017-Sep-12 14:55N 01°16' E 103°51'0 0.0
2017-Sep-12 14:25N 01°16' E 103°51'0 0.0
2017-Sep-12 13:58N 01°16' E 103°51'0 0.0
2017-Sep-12 13:28N 01°16' E 103°51'0 0.0
2017-Sep-12 12:55N 01°16' E 103°51'0 0.0
2017-Sep-12 12:28N 01°16' E 103°51'0 0.0
2017-Sep-12 11:55N 01°16' E 103°51'0 0.0
2017-Sep-12 11:25N 01°16' E 103°51'0 0.0
2017-Sep-12 10:58N 01°16' E 103°51'0 0.0
2017-Sep-12 10:28N 01°16' E 103°51'0 0.0
2017-Sep-12 09:55N 01°16' E 103°51'0 0.0
2017-Sep-12 09:28N 01°16' E 103°51'0 0.0
2017-Sep-12 08:58N 01°16' E 103°51'0 0.0
2017-Sep-12 08:28N 01°16' E 103°51'0 0.0
2017-Sep-12 07:58N 01°16' E 103°51'0 0.0
2017-Sep-12 07:25N 01°16' E 103°51'0 0.0
2017-Sep-12 06:55N 01°16' E 103°51'0 0.0
2017-Sep-12 06:25N 01°16' E 103°51'0 0.0
2017-Sep-12 05:55N 01°16' E 103°51'0 0.0
2017-Sep-12 05:25N 01°16' E 103°51'0 0.0
2017-Sep-12 04:55N 01°16' E 103°51'0 0.0
2017-Sep-12 04:25N 01°16' E 103°51'0 0.0
2017-Sep-12 03:55N 01°16' E 103°51'0 0.0
2017-Sep-12 03:25N 01°16' E 103°51'0 0.0
2017-Sep-12 02:58N 01°16' E 103°51'0 0.0
2017-Sep-12 02:25N 01°16' E 103°51'0 0.0
2017-Sep-12 01:55N 01°16' E 103°51'0 0.0
2017-Sep-12 01:28N 01°16' E 103°51'0 0.0
2017-Sep-12 00:55N 01°16' E 103°51'0 0.0
2017-Sep-12 00:28N 01°16' E 103°51'0 0.3
2017-Sep-12 00:00N 01°16' E 103°51'1 3.0
2017-Sep-11 23:30N 01°15' E 103°52'2 4.7
2017-Sep-11 23:00N 01°13' E 103°53'3 5.2
2017-Sep-11 22:30N 01°14' E 103°56'4 7.7
2017-Sep-11 22:01N 01°15' E 103°59'610.0
2017-Sep-11 21:25N 01°16' E 104°05'  

Dump ship's entire track history